Time;durP1;ratioP1;P1;durP2;ratioP2;P2;SDS_P1;SDS_P2;PMS_P1;PMS_P2;Temp;Humidity;BMP_temperature;BMP_pressure;BME280_temperature;BME280_humidity;BME280_pressure;Samples;Min_cycle;Max_cycle;Signal;HPM_P1;HPM_P2
2023/10/19 00:01:10;;;;;;;;;;;9.00;87.50;;;;;;5040963;28;19921;-67
2023/10/19 00:03:35;;;;;;;;;;;9.00;88.00;;;;;;5046757;28;19920;-67
2023/10/19 00:06:01;;;;;;;;;;;9.00;87.90;;;;;;5044491;28;20392;-68
2023/10/19 00:08:36;;;;;;;;;;;9.00;87.60;;;;;;5032782;28;19925;-68
2023/10/19 00:13:28;;;;;;;;;;;8.90;87.80;;;;;;5044273;28;20007;-68
2023/10/19 00:15:57;;;;;;;;;;;9.00;88.10;;;;;;5050838;28;19956;-69
2023/10/19 00:18:23;;;;;;;;;;;9.00;87.50;;;;;;5039201;28;20007;-69
2023/10/19 00:23:40;;;;;;;;;;;9.00;87.90;;;;;;5051547;28;20071;-69
2023/10/19 00:26:10;;;;;;;;;;;9.00;88.40;;;;;;5034310;28;19931;-68
2023/10/19 00:28:38;;;;;;;;;;;8.90;88.50;;;;;;5044625;28;20290;-68
2023/10/19 00:31:07;;;;;;;;;;;8.90;88.40;;;;;;5032423;28;19928;-68
2023/10/19 00:33:33;;;;;;;;;;;8.90;88.70;;;;;;5042334;28;19924;-67
2023/10/19 00:36:15;;;;;;;;;;;9.00;88.50;;;;;;5052243;28;19921;-67
2023/10/19 00:38:50;;;;;;;;;;;8.90;88.70;;;;;;5051999;28;19950;-67
2023/10/19 00:41:34;;;;;;;;;;;8.90;88.70;;;;;;5051774;28;19920;-67
2023/10/19 00:44:07;;;;;;;;;;;9.00;88.50;;;;;;5051948;28;19925;-68
2023/10/19 00:46:37;;;;;;;;;;;8.90;88.80;;;;;;5052094;28;20007;-68
2023/10/19 00:49:06;;;;;;;;;;;8.90;88.90;;;;;;5051211;28;19920;-68
2023/10/19 00:54:24;;;;;;;;;;;8.90;89.00;;;;;;5051815;28;19920;-68
2023/10/19 00:56:51;;;;;;;;;;;8.90;89.10;;;;;;5051980;28;19970;-68
2023/10/19 00:59:23;;;;;;;;;;;8.90;89.20;;;;;;5051136;28;20039;-68
2023/10/19 01:02:03;;;;;;;;;;;8.90;89.60;;;;;;5052161;28;19967;-68
2023/10/19 01:04:34;;;;;;;;;;;8.90;89.50;;;;;;5051266;28;19925;-68
2023/10/19 01:07:12;;;;;;;;;;;8.90;89.50;;;;;;5051765;28;20026;-68
2023/10/19 01:09:38;;;;;;;;;;;8.90;89.50;;;;;;5034496;28;20306;-68
2023/10/19 01:15:13;;;;;;;;;;;8.80;89.60;;;;;;5051317;28;20019;-68
2023/10/19 01:17:39;;;;;;;;;;;8.80;89.80;;;;;;5051468;28;19920;-68
2023/10/19 01:20:17;;;;;;;;;;;8.90;89.60;;;;;;5051017;28;19921;-68
2023/10/19 01:22:53;;;;;;;;;;;8.90;89.30;;;;;;5051242;28;20862;-68
2023/10/19 01:25:34;;;;;;;;;;;8.90;89.60;;;;;;5051001;28;19940;-68
2023/10/19 01:28:07;;;;;;;;;;;8.80;90.10;;;;;;5051420;28;19924;-68
2023/10/19 01:30:33;;;;;;;;;;;8.80;90.00;;;;;;5050812;28;19924;-68
2023/10/19 01:32:59;;;;;;;;;;;8.90;90.20;;;;;;5051291;28;19921;-68
2023/10/19 01:35:24;;;;;;;;;;;8.80;90.40;;;;;;5050221;28;19925;-68
2023/10/19 01:37:50;;;;;;;;;;;8.90;90.10;;;;;;5050976;28;20453;-68
2023/10/19 01:40:20;;;;;;;;;;;8.90;89.70;;;;;;5050750;28;19931;-68
2023/10/19 01:42:45;;;;;;;;;;;8.90;89.90;;;;;;5037855;28;19929;-68
2023/10/19 01:45:11;;;;;;;;;;;8.90;90.30;;;;;;5050706;28;19921;-68
2023/10/19 01:47:37;;;;;;;;;;;8.90;90.20;;;;;;5049335;28;19994;-68
2023/10/19 01:50:03;;;;;;;;;;;9.00;90.10;;;;;;5039127;28;19925;-67
2023/10/19 01:52:28;;;;;;;;;;;9.00;90.20;;;;;;5034523;28;19925;-69
2023/10/19 01:54:59;;;;;;;;;;;9.00;89.70;;;;;;5031485;28;19971;-69
2023/10/19 01:57:25;;;;;;;;;;;9.00;90.10;;;;;;5048137;28;19921;-67
2023/10/19 01:59:51;;;;;;;;;;;9.00;90.10;;;;;;5050367;28;19921;-68
2023/10/19 02:02:16;;;;;;;;;;;9.00;90.30;;;;;;5039430;28;19921;-68
2023/10/19 02:04:42;;;;;;;;;;;9.00;90.20;;;;;;5038975;28;20324;-68
2023/10/19 02:07:13;;;;;;;;;;;9.10;90.20;;;;;;5050609;28;19968;-68
2023/10/19 02:09:39;;;;;;;;;;;9.10;90.20;;;;;;5050701;28;19967;-68
2023/10/19 02:12:06;;;;;;;;;;;9.00;90.40;;;;;;5050609;28;19963;-68
2023/10/19 02:14:33;;;;;;;;;;;9.10;90.70;;;;;;5049814;28;20441;-68
2023/10/19 02:17:00;;;;;;;;;;;9.00;91.00;;;;;;5050381;28;19966;-68
2023/10/19 02:19:26;;;;;;;;;;;9.00;91.30;;;;;;5050046;28;19921;-68
2023/10/19 02:21:56;;;;;;;;;;;9.00;91.30;;;;;;5050584;28;19921;-68
2023/10/19 02:24:22;;;;;;;;;;;9.00;91.40;;;;;;5048344;28;20368;-68
2023/10/19 02:26:51;;;;;;;;;;;9.00;91.20;;;;;;5049984;28;20015;-68
2023/10/19 02:29:17;;;;;;;;;;;9.00;91.60;;;;;;5048766;28;19927;-68
2023/10/19 02:31:43;;;;;;;;;;;9.00;91.50;;;;;;5050276;28;19921;-68
2023/10/19 02:34:10;;;;;;;;;;;9.00;91.50;;;;;;5049374;28;20261;-68
2023/10/19 02:36:37;;;;;;;;;;;9.00;91.70;;;;;;5049981;28;20560;-67
2023/10/19 02:39:07;;;;;;;;;;;9.00;91.80;;;;;;5049830;28;19927;-67
2023/10/19 02:41:36;;;;;;;;;;;9.00;91.60;;;;;;5050053;28;19963;-66
2023/10/19 02:44:08;;;;;;;;;;;9.10;91.50;;;;;;5049378;28;20040;-67
2023/10/19 02:46:34;;;;;;;;;;;9.10;91.70;;;;;;5045821;28;20160;-66
2023/10/19 02:49:03;;;;;;;;;;;9.10;91.60;;;;;;5047494;28;19924;-66
2023/10/19 02:51:29;;;;;;;;;;;9.10;91.80;;;;;;5049491;28;20044;-66
2023/10/19 02:53:55;;;;;;;;;;;9.10;91.80;;;;;;5048986;28;20295;-67
2023/10/19 02:56:23;;;;;;;;;;;9.10;91.70;;;;;;5048583;28;19920;-67
2023/10/19 02:58:49;;;;;;;;;;;9.10;91.70;;;;;;5049036;28;19928;-67
2023/10/19 03:01:30;;;;;;;;;;;9.10;91.70;;;;;;5044401;28;19936;-67
2023/10/19 03:03:59;;;;;;;;;;;9.10;91.50;;;;;;5031089;28;19964;-67
2023/10/19 03:06:25;;;;;;;;;;;9.10;91.60;;;;;;5048815;28;19928;-67
2023/10/19 03:11:35;;;;;;;;;;;9.20;91.70;;;;;;5049333;28;20031;-67
2023/10/19 03:14:04;;;;;;;;;;;9.20;91.60;;;;;;5049103;28;20035;-67
2023/10/19 03:16:30;;;;;;;;;;;9.20;91.60;;;;;;5049186;28;19921;-67
2023/10/19 03:18:56;;;;;;;;;;;9.20;91.70;;;;;;5045021;28;19928;-67
2023/10/19 03:21:26;;;;;;;;;;;9.20;91.60;;;;;;5039283;28;20662;-67
2023/10/19 03:23:56;;;;;;;;;;;9.30;91.30;;;;;;5049507;28;19920;-67
2023/10/19 03:26:27;;;;;;;;;;;9.30;91.20;;;;;;5049182;28;20426;-67
2023/10/19 03:28:56;;;;;;;;;;;9.30;91.10;;;;;;5048917;28;20266;-67
2023/10/19 03:31:25;;;;;;;;;;;9.30;91.50;;;;;;5048411;28;20359;-68
2023/10/19 03:33:59;;;;;;;;;;;9.30;91.70;;;;;;5049224;28;19968;-67
2023/10/19 03:36:25;;;;;;;;;;;9.30;91.70;;;;;;5048975;28;19920;-68
2023/10/19 03:38:53;;;;;;;;;;;9.40;91.80;;;;;;5050661;28;19927;-67
2023/10/19 03:41:26;;;;;;;;;;;9.40;91.70;;;;;;5049455;28;19924;-67
2023/10/19 03:43:57;;;;;;;;;;;9.30;91.70;;;;;;5046831;28;19971;-68
2023/10/19 03:46:30;;;;;;;;;;;9.40;92.10;;;;;;5050291;28;20620;-68
2023/10/19 03:48:59;;;;;;;;;;;9.40;92.30;;;;;;5044063;28;19921;-68
2023/10/19 03:51:26;;;;;;;;;;;9.40;92.20;;;;;;5048427;28;20015;-68
2023/10/19 03:53:58;;;;;;;;;;;9.40;92.20;;;;;;5051376;28;20070;-67
2023/10/19 03:56:24;;;;;;;;;;;9.50;92.20;;;;;;5048064;28;19999;-68
2023/10/19 03:58:50;;;;;;;;;;;9.50;92.00;;;;;;5049074;28;20447;-68
2023/10/19 04:01:19;;;;;;;;;;;9.50;91.90;;;;;;5050587;28;19956;-67
2023/10/19 04:03:44;;;;;;;;;;;9.50;91.90;;;;;;5049867;28;19921;-67
2023/10/19 04:06:16;;;;;;;;;;;9.50;92.00;;;;;;5051597;28;19921;-66
2023/10/19 04:08:50;;;;;;;;;;;9.50;92.00;;;;;;5051828;28;19928;-67
2023/10/19 04:11:21;;;;;;;;;;;9.50;91.90;;;;;;5040915;28;19921;-68
2023/10/19 04:13:47;;;;;;;;;;;9.50;91.80;;;;;;5039512;28;20312;-67
2023/10/19 04:16:14;;;;;;;;;;;9.50;91.90;;;;;;5043807;28;19928;-67
2023/10/19 04:18:43;;;;;;;;;;;9.60;91.90;;;;;;5032883;28;19933;-67
2023/10/19 04:21:09;;;;;;;;;;;9.60;91.90;;;;;;5036297;28;19921;-67
2023/10/19 04:23:35;;;;;;;;;;;9.60;91.80;;;;;;5047190;28;20399;-67
2023/10/19 04:26:05;;;;;;;;;;;9.60;91.80;;;;;;5046226;28;20369;-67
2023/10/19 04:28:30;;;;;;;;;;;9.60;91.70;;;;;;5043135;28;19921;-68
2023/10/19 04:31:00;;;;;;;;;;;9.60;91.80;;;;;;5050898;28;19921;-67
2023/10/19 04:33:28;;;;;;;;;;;9.60;91.90;;;;;;5043540;28;19928;-67
2023/10/19 04:35:55;;;;;;;;;;;9.60;91.80;;;;;;5051392;28;19920;-67
2023/10/19 04:38:22;;;;;;;;;;;9.60;91.80;;;;;;5051922;28;19920;-67
2023/10/19 04:40:50;;;;;;;;;;;9.60;91.80;;;;;;5051923;28;20297;-67
2023/10/19 04:43:21;;;;;;;;;;;9.70;91.80;;;;;;5049990;28;19920;-67
2023/10/19 04:45:46;;;;;;;;;;;9.60;91.70;;;;;;5041673;28;19921;-67
2023/10/19 04:48:12;;;;;;;;;;;9.70;91.70;;;;;;5051296;28;19920;-67
2023/10/19 04:50:39;;;;;;;;;;;9.70;91.70;;;;;;5045788;28;19924;-67
2023/10/19 04:53:05;;;;;;;;;;;9.70;91.90;;;;;;5041359;28;19928;-67
2023/10/19 04:55:30;;;;;;;;;;;9.80;92.00;;;;;;5051382;28;19921;-67
2023/10/19 04:57:56;;;;;;;;;;;9.70;91.90;;;;;;5051590;28;19921;-67
2023/10/19 05:00:24;;;;;;;;;;;9.70;91.80;;;;;;5051620;28;19920;-67
2023/10/19 05:02:51;;;;;;;;;;;9.70;91.90;;;;;;5050763;28;19972;-68
2023/10/19 05:05:17;;;;;;;;;;;9.70;92.00;;;;;;5032989;28;19978;-67
2023/10/19 05:07:43;;;;;;;;;;;9.80;92.10;;;;;;5050227;28;20007;-67
2023/10/19 05:10:08;;;;;;;;;;;9.80;92.10;;;;;;5048846;28;20419;-68
2023/10/19 05:12:34;;;;;;;;;;;9.80;92.10;;;;;;5049415;28;19927;-67
2023/10/19 05:14:59;;;;;;;;;;;9.80;92.00;;;;;;5046191;28;20389;-68
2023/10/19 05:17:25;;;;;;;;;;;9.90;91.90;;;;;;5048542;28;19921;-68
2023/10/19 05:19:50;;;;;;;;;;;9.90;91.80;;;;;;5045345;28;20007;-68
2023/10/19 05:22:16;;;;;;;;;;;9.90;91.80;;;;;;5049053;28;20014;-67
2023/10/19 05:24:42;;;;;;;;;;;10.00;91.70;;;;;;5050568;28;20293;-67
2023/10/19 05:27:09;;;;;;;;;;;10.00;91.70;;;;;;5049249;28;19920;-67
2023/10/19 05:29:35;;;;;;;;;;;10.00;91.70;;;;;;5049378;28;19920;-67
2023/10/19 05:32:02;;;;;;;;;;;10.00;91.60;;;;;;5045665;28;19924;-67
2023/10/19 05:34:29;;;;;;;;;;;10.00;91.80;;;;;;5049388;28;19929;-67
2023/10/19 05:36:58;;;;;;;;;;;10.00;91.80;;;;;;5034897;28;20317;-67
2023/10/19 05:39:27;;;;;;;;;;;10.10;91.80;;;;;;5049976;28;19921;-67
2023/10/19 05:41:56;;;;;;;;;;;10.00;91.80;;;;;;5047549;28;19972;-67
2023/10/19 05:44:24;;;;;;;;;;;10.10;91.80;;;;;;5047161;28;19982;-66
2023/10/19 05:46:50;;;;;;;;;;;10.00;91.60;;;;;;5042707;28;20265;-67
2023/10/19 05:49:16;;;;;;;;;;;10.00;91.90;;;;;;5041045;28;20571;-68
2023/10/19 05:51:44;;;;;;;;;;;10.10;91.90;;;;;;5047299;28;19921;-67
2023/10/19 05:54:09;;;;;;;;;;;10.10;91.80;;;;;;5046634;28;20312;-66
2023/10/19 05:56:35;;;;;;;;;;;10.10;91.90;;;;;;5040473;28;19928;-67
2023/10/19 05:59:01;;;;;;;;;;;10.00;92.20;;;;;;5046819;28;19982;-67
2023/10/19 06:01:27;;;;;;;;;;;10.00;92.40;;;;;;5046146;28;20417;-67
2023/10/19 06:03:53;;;;;;;;;;;10.00;92.40;;;;;;5047667;28;20004;-67
2023/10/19 06:06:21;;;;;;;;;;;10.00;92.50;;;;;;5042289;28;19929;-68
2023/10/19 06:08:47;;;;;;;;;;;10.00;92.40;;;;;;5040153;28;20305;-68
2023/10/19 06:11:13;;;;;;;;;;;10.40;93.40;;;;;;5045755;28;19920;-74
2023/10/19 06:13:38;;;;;;;;;;;10.40;92.70;;;;;;5038942;28;19921;-68
2023/10/19 06:16:04;;;;;;;;;;;10.60;92.90;;;;;;5046817;28;20458;-67
2023/10/19 06:18:29;;;;;;;;;;;10.70;92.60;;;;;;5040899;28;19925;-67
2023/10/19 06:20:55;;;;;;;;;;;10.60;92.30;;;;;;5028582;28;20345;-67
2023/10/19 06:23:21;;;;;;;;;;;10.60;92.10;;;;;;5033288;28;19924;-67
2023/10/19 06:25:46;;;;;;;;;;;10.50;91.90;;;;;;5035669;28;19921;-67
2023/10/19 06:28:12;;;;;;;;;;;10.50;91.80;;;;;;5030087;28;19921;-67
2023/10/19 06:30:38;;;;;;;;;;;10.40;91.70;;;;;;5032125;28;19936;-67
2023/10/19 06:33:03;;;;;;;;;;;10.40;91.70;;;;;;5050013;28;20645;-67
2023/10/19 06:35:33;;;;;;;;;;;10.30;91.80;;;;;;5050089;28;19928;-67
2023/10/19 06:37:59;;;;;;;;;;;10.30;91.90;;;;;;5049518;28;20026;-67
2023/10/19 06:40:26;;;;;;;;;;;10.30;91.90;;;;;;5029409;28;19950;-67
2023/10/19 06:42:52;;;;;;;;;;;10.30;92.10;;;;;;5017946;28;19991;-67
2023/10/19 06:45:18;;;;;;;;;;;10.20;91.90;;;;;;5035750;28;20397;-67
2023/10/19 06:47:49;;;;;;;;;;;10.20;92.00;;;;;;5038561;28;19928;-67
2023/10/19 06:50:19;;;;;;;;;;;10.20;92.00;;;;;;5036765;28;19921;-67
2023/10/19 06:52:47;;;;;;;;;;;10.20;92.00;;;;;;5036716;28;19921;-67
2023/10/19 06:55:13;;;;;;;;;;;10.20;92.00;;;;;;5037388;28;19949;-67
2023/10/19 06:57:47;;;;;;;;;;;10.20;92.10;;;;;;5037707;28;19956;-67
2023/10/19 07:00:19;;;;;;;;;;;10.20;92.10;;;;;;5036677;28;19921;-67
2023/10/19 07:02:45;;;;;;;;;;;10.20;92.10;;;;;;5036707;28;19921;-67
2023/10/19 07:05:11;;;;;;;;;;;10.20;92.10;;;;;;5036952;28;20098;-67
2023/10/19 07:07:39;;;;;;;;;;;10.30;92.20;;;;;;5036023;28;20441;-67
2023/10/19 07:10:06;;;;;;;;;;;10.20;92.20;;;;;;5037369;28;19931;-67
2023/10/19 07:12:32;;;;;;;;;;;10.20;92.30;;;;;;5036182;28;19929;-67
2023/10/19 07:15:00;;;;;;;;;;;10.30;92.30;;;;;;5037471;28;20002;-67
2023/10/19 07:17:27;;;;;;;;;;;10.30;92.20;;;;;;5036423;28;19936;-67
2023/10/19 07:19:52;;;;;;;;;;;10.30;92.10;;;;;;5036363;28;20000;-67
2023/10/19 07:22:22;;;;;;;;;;;10.30;92.10;;;;;;5034625;28;20011;-67
2023/10/19 07:24:48;;;;;;;;;;;10.30;92.00;;;;;;5037946;28;20407;-67
2023/10/19 07:27:18;;;;;;;;;;;10.30;91.90;;;;;;5034992;28;19921;-67
2023/10/19 07:29:47;;;;;;;;;;;10.30;91.90;;;;;;5036703;28;19931;-67
2023/10/19 07:32:16;;;;;;;;;;;10.40;91.90;;;;;;5035469;28;19921;-68
2023/10/19 07:34:44;;;;;;;;;;;10.30;92.00;;;;;;5034847;28;19921;-68
2023/10/19 07:37:15;;;;;;;;;;;10.40;92.20;;;;;;5037731;28;20008;-68
2023/10/19 07:39:47;;;;;;;;;;;10.30;92.20;;;;;;5037055;28;19979;-68
2023/10/19 07:42:14;;;;;;;;;;;10.30;92.20;;;;;;5037118;28;19936;-68
2023/10/19 07:44:40;;;;;;;;;;;10.40;92.20;;;;;;5037288;28;19983;-68
2023/10/19 07:47:07;;;;;;;;;;;10.40;92.30;;;;;;5035780;28;19929;-68
2023/10/19 07:49:32;;;;;;;;;;;10.40;92.20;;;;;;5036977;28;20321;-68
2023/10/19 07:51:59;;;;;;;;;;;10.40;92.30;;;;;;5035237;28;19935;-68
2023/10/19 07:54:24;;;;;;;;;;;10.40;92.30;;;;;;5035248;28;20289;-68
2023/10/19 07:56:50;;;;;;;;;;;10.50;92.30;;;;;;5035133;28;19920;-67
2023/10/19 07:59:16;;;;;;;;;;;10.50;92.20;;;;;;5036715;28;19921;-67
2023/10/19 08:01:42;;;;;;;;;;;10.50;92.30;;;;;;5038499;28;19932;-67
2023/10/19 08:04:07;;;;;;;;;;;10.50;92.40;;;;;;5036471;28;19928;-67
2023/10/19 08:06:33;;;;;;;;;;;10.50;92.40;;;;;;5036195;28;20349;-67
2023/10/19 08:08:59;;;;;;;;;;;10.50;92.50;;;;;;5037102;28;19921;-67
2023/10/19 08:11:25;;;;;;;;;;;10.60;92.50;;;;;;5036711;28;19921;-67
2023/10/19 08:13:50;;;;;;;;;;;10.60;92.50;;;;;;5036366;28;20640;-68
2023/10/19 08:16:16;;;;;;;;;;;10.60;92.50;;;;;;5036546;28;19920;-67
2023/10/19 08:18:42;;;;;;;;;;;10.60;92.40;;;;;;5035684;28;19929;-67
2023/10/19 08:21:08;;;;;;;;;;;10.70;92.40;;;;;;5036337;28;20388;-68
2023/10/19 08:23:33;;;;;;;;;;;10.60;92.40;;;;;;5029054;28;19975;-68
2023/10/19 08:25:59;;;;;;;;;;;10.70;92.20;;;;;;5036556;28;19921;-68
2023/10/19 08:28:25;;;;;;;;;;;10.80;92.30;;;;;;5039301;28;19920;-67
2023/10/19 08:30:56;;;;;;;;;;;10.80;92.30;;;;;;5040222;28;19928;-68
2023/10/19 08:33:22;;;;;;;;;;;10.80;92.20;;;;;;5040075;28;19939;-67
2023/10/19 08:35:48;;;;;;;;;;;10.70;92.20;;;;;;5039916;28;19927;-67
2023/10/19 08:38:13;;;;;;;;;;;10.70;92.30;;;;;;5039528;28;19929;-66
2023/10/19 08:40:39;;;;;;;;;;;10.70;92.20;;;;;;5039451;28;19974;-66
2023/10/19 08:43:05;;;;;;;;;;;10.80;92.20;;;;;;5048913;28;19973;-66
2023/10/19 08:45:32;;;;;;;;;;;10.80;92.20;;;;;;5041220;28;20004;-67
2023/10/19 08:47:59;;;;;;;;;;;10.80;92.20;;;;;;5033373;28;19955;-67
2023/10/19 08:50:26;;;;;;;;;;;10.90;92.20;;;;;;5051120;28;19973;-67
2023/10/19 08:52:53;;;;;;;;;;;10.90;92.30;;;;;;5035530;28;19927;-67
2023/10/19 08:55:19;;;;;;;;;;;11.00;92.20;;;;;;5050280;28;19928;-66
2023/10/19 08:57:45;;;;;;;;;;;11.00;92.30;;;;;;5049508;28;19921;-66
2023/10/19 09:00:11;;;;;;;;;;;11.00;92.40;;;;;;5041579;28;20618;-66
2023/10/19 09:02:37;;;;;;;;;;;11.00;92.70;;;;;;5049163;28;20039;-67
2023/10/19 09:05:06;;;;;;;;;;;11.00;92.60;;;;;;5032419;28;20129;-67
2023/10/19 09:07:34;;;;;;;;;;;11.10;92.60;;;;;;5035766;28;20012;-67
2023/10/19 09:10:01;;;;;;;;;;;11.10;92.50;;;;;;5050166;28;19928;-67
2023/10/19 09:12:26;;;;;;;;;;;11.10;92.50;;;;;;5049371;28;20014;-67
2023/10/19 09:14:53;;;;;;;;;;;11.10;92.40;;;;;;5035112;28;20405;-67
2023/10/19 09:17:29;;;;;;;;;;;11.10;92.40;;;;;;5041096;28;19925;-67
2023/10/19 09:19:56;;;;;;;;;;;11.10;92.30;;;;;;5051079;28;19974;-67
2023/10/19 09:22:24;;;;;;;;;;;11.10;92.40;;;;;;5032892;28;20022;-67
2023/10/19 09:24:51;;;;;;;;;;;11.10;92.40;;;;;;5031372;28;19944;-68
2023/10/19 09:27:17;;;;;;;;;;;11.10;92.40;;;;;;5032153;28;19929;-67
2023/10/19 09:29:42;;;;;;;;;;;11.20;92.50;;;;;;5031993;28;20381;-67
2023/10/19 09:32:08;;;;;;;;;;;11.20;92.40;;;;;;5050538;28;19930;-67
2023/10/19 09:34:34;;;;;;;;;;;11.20;92.40;;;;;;5048975;28;19921;-67
2023/10/19 09:37:00;;;;;;;;;;;11.30;92.30;;;;;;5049477;28;19928;-67
2023/10/19 09:39:35;;;;;;;;;;;11.30;92.30;;;;;;5038899;28;20412;-67
2023/10/19 09:42:06;;;;;;;;;;;11.20;92.30;;;;;;5013469;28;19921;-67
2023/10/19 09:44:39;;;;;;;;;;;11.30;92.30;;;;;;5034422;28;19921;-67
2023/10/19 09:47:10;;;;;;;;;;;11.30;92.30;;;;;;5049727;28;19966;-67
2023/10/19 09:49:36;;;;;;;;;;;11.40;92.30;;;;;;5050810;28;19921;-67
2023/10/19 09:52:04;;;;;;;;;;;11.40;92.20;;;;;;5032254;28;19921;-67
2023/10/19 09:54:34;;;;;;;;;;;11.30;92.30;;;;;;5040917;28;19921;-68
2023/10/19 09:57:02;;;;;;;;;;;11.40;92.50;;;;;;5049473;28;20015;-67
2023/10/19 09:59:40;;;;;;;;;;;11.50;92.40;;;;;;5040084;28;19925;-68
2023/10/19 10:02:12;;;;;;;;;;;11.50;92.40;;;;;;5032485;28;19921;-68
2023/10/19 10:04:39;;;;;;;;;;;11.50;92.30;;;;;;5033460;28;19932;-68
2023/10/19 10:07:06;;;;;;;;;;;11.50;92.30;;;;;;5030816;28;20059;-67
2023/10/19 10:09:34;;;;;;;;;;;11.50;92.50;;;;;;5034089;28;20428;-67
2023/10/19 10:12:15;;;;;;;;;;;11.50;92.50;;;;;;5050668;28;19931;-67
2023/10/19 10:14:52;;;;;;;;;;;11.60;92.40;;;;;;5045514;28;20033;-67
2023/10/19 10:17:18;;;;;;;;;;;11.60;92.40;;;;;;5034185;28;19954;-67
2023/10/19 10:19:44;;;;;;;;;;;11.60;92.50;;;;;;5046011;28;19925;-67
2023/10/19 10:22:20;;;;;;;;;;;11.70;92.50;;;;;;5041600;28;19932;-67
2023/10/19 10:24:46;;;;;;;;;;;11.70;92.60;;;;;;5042116;28;19971;-68
2023/10/19 10:27:16;;;;;;;;;;;11.70;92.40;;;;;;5049077;28;19959;-67
2023/10/19 10:29:54;;;;;;;;;;;11.70;92.40;;;;;;5038234;28;19921;-67
2023/10/19 10:32:59;;;;;;;;;;;11.70;92.40;;;;;;5042693;28;20344;-67
2023/10/19 10:35:36;;;;;;;;;;;11.80;92.40;;;;;;4994832;28;19925;-68
2023/10/19 10:38:05;;;;;;;;;;;11.80;92.50;;;;;;5027586;28;19925;-67
2023/10/19 10:40:31;;;;;;;;;;;11.80;92.60;;;;;;5022772;28;19967;-67
2023/10/19 10:43:06;;;;;;;;;;;11.80;92.60;;;;;;5050182;28;19935;-68
2023/10/19 10:45:32;;;;;;;;;;;11.80;92.60;;;;;;5048933;28;20003;-68
2023/10/19 10:48:00;;;;;;;;;;;11.90;92.70;;;;;;5038969;28;20015;-69
2023/10/19 10:50:28;;;;;;;;;;;11.90;92.70;;;;;;5022382;28;20015;-68
2023/10/19 10:52:57;;;;;;;;;;;11.90;92.70;;;;;;5044299;28;19986;-66
2023/10/19 10:55:23;;;;;;;;;;;11.90;92.70;;;;;;5037299;28;19967;-67
2023/10/19 10:57:49;;;;;;;;;;;12.00;92.70;;;;;;5029837;28;20393;-67
2023/10/19 11:00:15;;;;;;;;;;;12.10;92.70;;;;;;5030691;28;19968;-67
2023/10/19 11:02:45;;;;;;;;;;;12.20;92.70;;;;;;5038483;28;19959;-67
2023/10/19 11:05:12;;;;;;;;;;;12.20;92.80;;;;;;5040180;28;19921;-67
2023/10/19 11:07:37;;;;;;;;;;;12.30;92.70;;;;;;5029654;28;19921;-67
2023/10/19 11:10:03;;;;;;;;;;;12.30;92.80;;;;;;5035928;28;20008;-67
2023/10/19 11:12:29;;;;;;;;;;;12.40;92.70;;;;;;5039723;28;19921;-66
2023/10/19 11:14:55;;;;;;;;;;;12.40;92.60;;;;;;5028646;28;19967;-67
2023/10/19 11:17:27;;;;;;;;;;;12.40;92.60;;;;;;5029372;28;20375;-67
2023/10/19 11:19:56;;;;;;;;;;;12.40;92.60;;;;;;5030263;28;19921;-66
2023/10/19 11:22:21;;;;;;;;;;;12.40;92.60;;;;;;5033472;28;19920;-67
2023/10/19 11:24:47;;;;;;;;;;;12.50;92.60;;;;;;5046627;28;19982;-67
2023/10/19 11:27:12;;;;;;;;;;;12.50;92.70;;;;;;5049291;28;20345;-67
2023/10/19 11:29:38;;;;;;;;;;;12.50;92.50;;;;;;5047818;28;20415;-67
2023/10/19 11:32:04;;;;;;;;;;;12.50;92.60;;;;;;5048375;28;19968;-66
2023/10/19 11:34:30;;;;;;;;;;;12.50;92.60;;;;;;5029275;28;20451;-66
2023/10/19 11:36:59;;;;;;;;;;;12.50;92.70;;;;;;5048495;28;19925;-66
2023/10/19 11:39:28;;;;;;;;;;;12.60;92.70;;;;;;5049185;28;19951;-68
2023/10/19 11:41:54;;;;;;;;;;;12.60;92.70;;;;;;5033475;28;19921;-67
2023/10/19 11:44:19;;;;;;;;;;;12.70;92.70;;;;;;5042616;28;19936;-72
2023/10/19 11:46:45;;;;;;;;;;;13.00;94.50;;;;;;5047199;28;19975;-67
2023/10/19 11:49:11;;;;;;;;;;;13.20;93.40;;;;;;5036830;28;19974;-67
2023/10/19 11:51:37;;;;;;;;;;;13.30;93.20;;;;;;5046518;28;20389;-67
2023/10/19 11:54:05;;;;;;;;;;;13.20;92.80;;;;;;5041370;28;19920;-66
2023/10/19 11:56:31;;;;;;;;;;;13.20;92.70;;;;;;5037781;28;19990;-66
2023/10/19 11:58:56;;;;;;;;;;;13.20;92.60;;;;;;5047709;28;20368;-67
2023/10/19 12:01:22;;;;;;;;;;;13.20;92.50;;;;;;5040835;28;19951;-67
2023/10/19 12:03:48;;;;;;;;;;;13.10;92.40;;;;;;5041620;28;19921;-67
2023/10/19 12:06:18;;;;;;;;;;;13.10;92.20;;;;;;5036239;28;20300;-67
2023/10/19 12:08:44;;;;;;;;;;;13.10;92.10;;;;;;5047053;28;19925;-67
2023/10/19 12:11:15;;;;;;;;;;;13.10;92.10;;;;;;5051551;28;20187;-67
2023/10/19 12:13:41;;;;;;;;;;;13.10;92.10;;;;;;5046185;28;19925;-68
2023/10/19 12:16:07;;;;;;;;;;;13.10;92.10;;;;;;5050623;28;19924;-67
2023/10/19 12:18:32;;;;;;;;;;;13.00;92.00;;;;;;5043321;28;20369;-67
2023/10/19 12:20:59;;;;;;;;;;;13.00;92.10;;;;;;5051790;28;19936;-67
2023/10/19 12:23:25;;;;;;;;;;;12.90;92.10;;;;;;5048157;28;19948;-67
2023/10/19 12:25:50;;;;;;;;;;;12.90;92.00;;;;;;5045812;28;19964;-67
2023/10/19 12:28:16;;;;;;;;;;;12.90;92.10;;;;;;5044743;28;19952;-66
2023/10/19 12:30:42;;;;;;;;;;;12.90;92.00;;;;;;5037238;28;19924;-67
2023/10/19 12:33:11;;;;;;;;;;;12.90;91.90;;;;;;5050473;28;19982;-67
2023/10/19 12:35:53;;;;;;;;;;;12.90;91.90;;;;;;5049886;28;19925;-66
2023/10/19 12:38:19;;;;;;;;;;;12.90;92.00;;;;;;5043255;28;19921;-67
2023/10/19 12:40:46;;;;;;;;;;;12.90;91.90;;;;;;5044915;28;19921;-67
2023/10/19 12:43:13;;;;;;;;;;;12.90;91.90;;;;;;5047627;28;19925;-67
2023/10/19 12:45:39;;;;;;;;;;;12.90;92.00;;;;;;5047774;28;19925;-66
2023/10/19 12:48:05;;;;;;;;;;;12.90;92.00;;;;;;5032525;28;20392;-66
2023/10/19 12:50:31;;;;;;;;;;;12.80;91.90;;;;;;5049251;28;19972;-66
2023/10/19 12:52:57;;;;;;;;;;;12.80;91.80;;;;;;5045362;28;19978;-66
2023/10/19 12:55:26;;;;;;;;;;;12.80;91.80;;;;;;5049300;28;19970;-67
2023/10/19 12:57:52;;;;;;;;;;;12.70;91.80;;;;;;5034869;28;19921;-66
2023/10/19 13:00:25;;;;;;;;;;;12.70;91.90;;;;;;5038158;28;19925;-66
2023/10/19 13:02:51;;;;;;;;;;;12.70;91.80;;;;;;5032410;28;20297;-66
2023/10/19 13:05:20;;;;;;;;;;;12.60;91.70;;;;;;5031622;28;19925;-66
2023/10/19 13:07:46;;;;;;;;;;;12.60;91.70;;;;;;5032107;28;20437;-67
2023/10/19 13:10:11;;;;;;;;;;;12.60;91.60;;;;;;5039466;28;19928;-67
2023/10/19 13:12:37;;;;;;;;;;;12.60;91.60;;;;;;5050672;28;19927;-66
2023/10/19 13:15:03;;;;;;;;;;;12.60;91.60;;;;;;5045570;28;19929;-66
2023/10/19 13:17:28;;;;;;;;;;;12.60;91.50;;;;;;5038517;28;19932;-66
2023/10/19 13:19:56;;;;;;;;;;;12.50;91.50;;;;;;5044596;28;19921;-66
2023/10/19 13:22:21;;;;;;;;;;;12.50;91.50;;;;;;5036205;28;19920;-66
2023/10/19 13:24:47;;;;;;;;;;;12.50;91.60;;;;;;5045210;28;19921;-67
2023/10/19 13:27:13;;;;;;;;;;;12.50;91.50;;;;;;5036773;28;19969;-67
2023/10/19 13:29:41;;;;;;;;;;;12.60;91.60;;;;;;5049348;28;19925;-66
2023/10/19 13:32:06;;;;;;;;;;;12.60;91.40;;;;;;5037432;28;19929;-67
2023/10/19 13:34:32;;;;;;;;;;;12.50;91.50;;;;;;5051242;28;20285;-67
2023/10/19 13:36:58;;;;;;;;;;;12.50;91.50;;;;;;5046166;28;19928;-67
2023/10/19 13:39:25;;;;;;;;;;;12.50;91.40;;;;;;5049872;28;19925;-65
2023/10/19 13:41:52;;;;;;;;;;;12.50;91.40;;;;;;5036248;28;19921;-66
2023/10/19 13:44:20;;;;;;;;;;;12.40;91.40;;;;;;5045464;28;20545;-66
2023/10/19 13:46:51;;;;;;;;;;;12.40;91.40;;;;;;5046149;28;20446;-66
2023/10/19 13:49:18;;;;;;;;;;;12.40;91.30;;;;;;5049730;28;19931;-66
2023/10/19 13:51:44;;;;;;;;;;;12.40;91.30;;;;;;5039427;28;20373;-67
2023/10/19 13:54:09;;;;;;;;;;;12.30;91.40;;;;;;5045267;28;19921;-67
2023/10/19 13:56:35;;;;;;;;;;;12.30;91.40;;;;;;5045385;28;20024;-67
2023/10/19 13:59:01;;;;;;;;;;;12.30;91.40;;;;;;5046487;28;19920;-66
2023/10/19 14:01:28;;;;;;;;;;;12.30;91.40;;;;;;5049609;28;20436;-66
2023/10/19 14:03:57;;;;;;;;;;;12.20;91.30;;;;;;5038955;28;20312;-65
2023/10/19 14:06:23;;;;;;;;;;;12.20;91.30;;;;;;5044373;28;19985;-66
2023/10/19 14:08:49;;;;;;;;;;;12.20;91.30;;;;;;5048363;28;19921;-66
2023/10/19 14:11:15;;;;;;;;;;;12.10;91.30;;;;;;5047818;28;19921;-66
2023/10/19 14:13:42;;;;;;;;;;;12.10;91.30;;;;;;5049289;28;19924;-66
2023/10/19 14:16:08;;;;;;;;;;;12.10;91.30;;;;;;5049711;28;19929;-66
2023/10/19 14:18:33;;;;;;;;;;;12.10;91.50;;;;;;5050364;28;19921;-66
2023/10/19 14:21:00;;;;;;;;;;;12.10;91.40;;;;;;5043992;28;19932;-66
2023/10/19 14:23:27;;;;;;;;;;;12.00;91.40;;;;;;5043149;28;19921;-66
2023/10/19 14:25:52;;;;;;;;;;;12.10;91.40;;;;;;5042565;28;19920;-66
2023/10/19 14:28:18;;;;;;;;;;;12.00;91.30;;;;;;5044761;28;19931;-66
2023/10/19 14:30:45;;;;;;;;;;;12.00;91.20;;;;;;5042968;28;19974;-67
2023/10/19 14:33:10;;;;;;;;;;;12.00;91.30;;;;;;5046483;28;19921;-67
2023/10/19 14:35:39;;;;;;;;;;;11.90;91.40;;;;;;5047984;28;19928;-67
2023/10/19 14:38:06;;;;;;;;;;;11.90;91.40;;;;;;5043415;28;19927;-67